Terminal Aerodrome Forecast
Issued by NWS Twin Cities, MN

Home | Current Version | Previous Version | Text Only | Print | Product List | Glossary Off
Versions: 1 2 3 4 5 6 7 8 9 10 11 12 13 14 15 16 17 18 19 20 21 22 23 24 25 26 27 28 29 30 31

294
FTUS43 KMPX 190248 AAA
TAFMSP
TAF AMD
KMSP 190248Z 1903/2006 15006KT P6SM SKC
     FM190600 15004KT 5SM BR SCT250
     FM191000 16004KT 4SM BR SCT007
     FM191700 15006KT 5SM BR OVC008=

USA.gov is the U.S. government's official web portal to all federal, state and local government web resources and services.